sensor_id;sensor_type;location;lat;lon;timestamp;P1;durP1;ratioP1;P2;durP2;ratioP2
23260;SDS011;11799;47.740;-3.390;2023-04-03T00:02:12;6.72;;;4.05;;
23260;SDS011;11799;47.740;-3.390;2023-04-03T00:04:37;9.80;;;4.40;;
23260;SDS011;11799;47.740;-3.390;2023-04-03T00:07:03;10.02;;;3.88;;
23260;SDS011;11799;47.740;-3.390;2023-04-03T00:09:28;8.20;;;4.05;;
23260;SDS011;11799;47.740;-3.390;2023-04-03T00:11:54;7.20;;;4.20;;
23260;SDS011;11799;47.740;-3.390;2023-04-03T00:14:19;10.65;;;4.60;;
23260;SDS011;11799;47.740;-3.390;2023-04-03T00:16:45;7.97;;;4.63;;
23260;SDS011;11799;47.740;-3.390;2023-04-03T00:19:10;10.95;;;4.55;;
23260;SDS011;11799;47.740;-3.390;2023-04-03T00:21:37;12.63;;;4.57;;
23260;SDS011;11799;47.740;-3.390;2023-04-03T00:24:03;9.40;;;4.75;;
23260;SDS011;11799;47.740;-3.390;2023-04-03T00:26:28;7.03;;;4.82;;
23260;SDS011;11799;47.740;-3.390;2023-04-03T00:28:54;10.98;;;4.32;;
23260;SDS011;11799;47.740;-3.390;2023-04-03T00:31:20;9.70;;;4.72;;
23260;SDS011;11799;47.740;-3.390;2023-04-03T00:33:45;7.45;;;4.50;;
23260;SDS011;11799;47.740;-3.390;2023-04-03T00:36:11;11.60;;;4.70;;
23260;SDS011;11799;47.740;-3.390;2023-04-03T00:38:37;9.20;;;4.70;;
23260;SDS011;11799;47.740;-3.390;2023-04-03T00:41:03;15.15;;;4.75;;
23260;SDS011;11799;47.740;-3.390;2023-04-03T00:43:29;8.70;;;5.28;;
23260;SDS011;11799;47.740;-3.390;2023-04-03T00:45:56;11.07;;;5.30;;
23260;SDS011;11799;47.740;-3.390;2023-04-03T00:51:11;7.75;;;4.90;;
23260;SDS011;11799;47.740;-3.390;2023-04-03T00:53:42;8.75;;;4.82;;
23260;SDS011;11799;47.740;-3.390;2023-04-03T00:56:12;9.98;;;5.38;;
23260;SDS011;11799;47.740;-3.390;2023-04-03T00:58:42;9.67;;;5.23;;
23260;SDS011;11799;47.740;-3.390;2023-04-03T01:01:18;8.13;;;4.93;;
23260;SDS011;11799;47.740;-3.390;2023-04-03T01:03:48;8.68;;;5.28;;
23260;SDS011;11799;47.740;-3.390;2023-04-03T01:06:16;8.40;;;5.10;;
23260;SDS011;11799;47.740;-3.390;2023-04-03T01:08:46;7.47;;;5.30;;
23260;SDS011;11799;47.740;-3.390;2023-04-03T01:11:14;10.32;;;5.32;;
23260;SDS011;11799;47.740;-3.390;2023-04-03T01:13:40;11.77;;;4.90;;
23260;SDS011;11799;47.740;-3.390;2023-04-03T01:16:07;10.80;;;5.40;;
23260;SDS011;11799;47.740;-3.390;2023-04-03T01:18:33;8.45;;;5.45;;
23260;SDS011;11799;47.740;-3.390;2023-04-03T01:24:10;10.20;;;5.22;;
23260;SDS011;11799;47.740;-3.390;2023-04-03T01:26:37;10.85;;;5.53;;
23260;SDS011;11799;47.740;-3.390;2023-04-03T01:29:02;10.57;;;5.22;;
23260;SDS011;11799;47.740;-3.390;2023-04-03T01:32:11;9.27;;;5.20;;
23260;SDS011;11799;47.740;-3.390;2023-04-03T01:34:35;8.32;;;5.25;;
23260;SDS011;11799;47.740;-3.390;2023-04-03T01:37:01;14.32;;;5.60;;
23260;SDS011;11799;47.740;-3.390;2023-04-03T01:39:27;9.50;;;5.70;;
23260;SDS011;11799;47.740;-3.390;2023-04-03T01:41:52;13.77;;;5.90;;
23260;SDS011;11799;47.740;-3.390;2023-04-03T01:44:39;15.30;;;6.35;;
23260;SDS011;11799;47.740;-3.390;2023-04-03T01:47:05;18.83;;;6.18;;
23260;SDS011;11799;47.740;-3.390;2023-04-03T01:49:32;16.38;;;5.88;;
23260;SDS011;11799;47.740;-3.390;2023-04-03T01:51:58;20.10;;;6.18;;
23260;SDS011;11799;47.740;-3.390;2023-04-03T01:54:23;11.35;;;5.90;;
23260;SDS011;11799;47.740;-3.390;2023-04-03T01:56:49;10.35;;;6.22;;
23260;SDS011;11799;47.740;-3.390;2023-04-03T01:59:14;17.48;;;5.72;;
23260;SDS011;11799;47.740;-3.390;2023-04-03T02:01:43;14.40;;;5.80;;
23260;SDS011;11799;47.740;-3.390;2023-04-03T02:04:11;14.68;;;5.75;;
23260;SDS011;11799;47.740;-3.390;2023-04-03T02:06:37;10.88;;;5.28;;
23260;SDS011;11799;47.740;-3.390;2023-04-03T02:09:03;13.20;;;5.30;;
23260;SDS011;11799;47.740;-3.390;2023-04-03T02:11:29;13.65;;;4.82;;
23260;SDS011;11799;47.740;-3.390;2023-04-03T02:13:55;8.45;;;4.97;;
23260;SDS011;11799;47.740;-3.390;2023-04-03T02:16:21;12.40;;;5.43;;
23260;SDS011;11799;47.740;-3.390;2023-04-03T02:18:48;12.50;;;5.28;;
23260;SDS011;11799;47.740;-3.390;2023-04-03T02:21:13;9.77;;;4.38;;
23260;SDS011;11799;47.740;-3.390;2023-04-03T02:23:39;7.22;;;4.18;;
23260;SDS011;11799;47.740;-3.390;2023-04-03T02:26:09;9.38;;;4.70;;
23260;SDS011;11799;47.740;-3.390;2023-04-03T02:28:36;7.70;;;4.70;;
23260;SDS011;11799;47.740;-3.390;2023-04-03T02:31:03;10.93;;;4.57;;
23260;SDS011;11799;47.740;-3.390;2023-04-03T02:33:30;10.48;;;4.57;;
23260;SDS011;11799;47.740;-3.390;2023-04-03T02:35:56;9.95;;;4.65;;
23260;SDS011;11799;47.740;-3.390;2023-04-03T02:38:22;11.77;;;4.65;;
23260;SDS011;11799;47.740;-3.390;2023-04-03T02:40:49;10.02;;;4.85;;
23260;SDS011;11799;47.740;-3.390;2023-04-03T02:43:15;7.57;;;4.15;;
23260;SDS011;11799;47.740;-3.390;2023-04-03T02:45:40;7.85;;;4.50;;
23260;SDS011;11799;47.740;-3.390;2023-04-03T02:48:06;7.45;;;4.40;;
23260;SDS011;11799;47.740;-3.390;2023-04-03T02:50:31;14.48;;;5.00;;
23260;SDS011;11799;47.740;-3.390;2023-04-03T02:52:57;8.73;;;4.43;;
23260;SDS011;11799;47.740;-3.390;2023-04-03T02:55:23;12.85;;;5.43;;
23260;SDS011;11799;47.740;-3.390;2023-04-03T02:57:51;10.80;;;5.03;;
23260;SDS011;11799;47.740;-3.390;2023-04-03T03:00:17;13.98;;;5.00;;
23260;SDS011;11799;47.740;-3.390;2023-04-03T03:02:43;12.85;;;5.13;;
23260;SDS011;11799;47.740;-3.390;2023-04-03T03:05:08;12.75;;;5.50;;
23260;SDS011;11799;47.740;-3.390;2023-04-03T03:07:34;11.98;;;5.10;;
23260;SDS011;11799;47.740;-3.390;2023-04-03T03:09:59;11.32;;;5.75;;
23260;SDS011;11799;47.740;-3.390;2023-04-03T03:12:25;12.95;;;5.63;;
23260;SDS011;11799;47.740;-3.390;2023-04-03T03:14:51;16.15;;;5.40;;
23260;SDS011;11799;47.740;-3.390;2023-04-03T03:17:17;12.82;;;5.82;;
23260;SDS011;11799;47.740;-3.390;2023-04-03T03:19:43;12.60;;;5.90;;
23260;SDS011;11799;47.740;-3.390;2023-04-03T03:22:09;7.57;;;5.00;;
23260;SDS011;11799;47.740;-3.390;2023-04-03T03:24:34;12.05;;;4.80;;
23260;SDS011;11799;47.740;-3.390;2023-04-03T03:27:00;7.72;;;4.43;;
23260;SDS011;11799;47.740;-3.390;2023-04-03T03:29:26;9.48;;;4.30;;
23260;SDS011;11799;47.740;-3.390;2023-04-03T03:31:52;7.90;;;5.13;;
23260;SDS011;11799;47.740;-3.390;2023-04-03T03:34:17;6.70;;;4.53;;
23260;SDS011;11799;47.740;-3.390;2023-04-03T03:36:43;8.25;;;4.15;;
23260;SDS011;11799;47.740;-3.390;2023-04-03T03:39:08;10.32;;;4.68;;
23260;SDS011;11799;47.740;-3.390;2023-04-03T03:41:35;5.88;;;4.03;;
23260;SDS011;11799;47.740;-3.390;2023-04-03T03:44:01;9.30;;;5.20;;
23260;SDS011;11799;47.740;-3.390;2023-04-03T03:46:29;9.18;;;5.60;;
23260;SDS011;11799;47.740;-3.390;2023-04-03T03:48:55;9.27;;;5.90;;
23260;SDS011;11799;47.740;-3.390;2023-04-03T03:51:21;11.05;;;5.47;;
23260;SDS011;11799;47.740;-3.390;2023-04-03T03:53:46;10.27;;;5.55;;
23260;SDS011;11799;47.740;-3.390;2023-04-03T03:56:15;9.75;;;5.40;;
23260;SDS011;11799;47.740;-3.390;2023-04-03T03:58:41;13.90;;;4.95;;
23260;SDS011;11799;47.740;-3.390;2023-04-03T04:01:07;9.23;;;5.25;;
23260;SDS011;11799;47.740;-3.390;2023-04-03T04:03:38;10.48;;;5.13;;
23260;SDS011;11799;47.740;-3.390;2023-04-03T04:06:05;7.68;;;4.60;;
23260;SDS011;11799;47.740;-3.390;2023-04-03T04:08:30;8.73;;;5.60;;
23260;SDS011;11799;47.740;-3.390;2023-04-03T04:10:56;12.52;;;5.03;;
23260;SDS011;11799;47.740;-3.390;2023-04-03T04:13:22;9.70;;;5.78;;
23260;SDS011;11799;47.740;-3.390;2023-04-03T04:15:48;6.93;;;5.00;;
23260;SDS011;11799;47.740;-3.390;2023-04-03T04:18:15;11.02;;;5.40;;
23260;SDS011;11799;47.740;-3.390;2023-04-03T04:20:44;12.00;;;6.28;;
23260;SDS011;11799;47.740;-3.390;2023-04-03T04:23:11;11.10;;;6.03;;
23260;SDS011;11799;47.740;-3.390;2023-04-03T04:25:37;13.50;;;6.15;;
23260;SDS011;11799;47.740;-3.390;2023-04-03T04:28:04;17.92;;;6.50;;
23260;SDS011;11799;47.740;-3.390;2023-04-03T04:30:30;12.38;;;6.05;;
23260;SDS011;11799;47.740;-3.390;2023-04-03T04:32:57;11.23;;;6.03;;
23260;SDS011;11799;47.740;-3.390;2023-04-03T04:35:23;11.07;;;6.55;;
23260;SDS011;11799;47.740;-3.390;2023-04-03T04:37:50;12.98;;;6.55;;
23260;SDS011;11799;47.740;-3.390;2023-04-03T04:40:16;15.02;;;6.13;;
23260;SDS011;11799;47.740;-3.390;2023-04-03T04:42:42;12.10;;;6.35;;
23260;SDS011;11799;47.740;-3.390;2023-04-03T04:45:08;14.52;;;6.10;;
23260;SDS011;11799;47.740;-3.390;2023-04-03T04:47:36;15.40;;;6.35;;
23260;SDS011;11799;47.740;-3.390;2023-04-03T04:50:02;17.40;;;6.53;;
23260;SDS011;11799;47.740;-3.390;2023-04-03T04:52:30;15.20;;;6.15;;
23260;SDS011;11799;47.740;-3.390;2023-04-03T04:54:55;12.05;;;6.55;;
23260;SDS011;11799;47.740;-3.390;2023-04-03T04:57:21;18.83;;;7.00;;
23260;SDS011;11799;47.740;-3.390;2023-04-03T04:59:47;15.50;;;6.85;;
23260;SDS011;11799;47.740;-3.390;2023-04-03T05:02:12;15.57;;;6.60;;
23260;SDS011;11799;47.740;-3.390;2023-04-03T05:04:39;10.90;;;6.55;;
23260;SDS011;11799;47.740;-3.390;2023-04-03T05:07:11;19.60;;;6.85;;
23260;SDS011;11799;47.740;-3.390;2023-04-03T05:09:37;22.98;;;6.18;;
23260;SDS011;11799;47.740;-3.390;2023-04-03T05:12:03;13.25;;;5.63;;
23260;SDS011;11799;47.740;-3.390;2023-04-03T05:14:35;17.60;;;6.45;;
23260;SDS011;11799;47.740;-3.390;2023-04-03T05:17:05;9.68;;;5.75;;
23260;SDS011;11799;47.740;-3.390;2023-04-03T05:19:33;18.92;;;5.50;;
23260;SDS011;11799;47.740;-3.390;2023-04-03T05:21:59;25.90;;;6.82;;
23260;SDS011;11799;47.740;-3.390;2023-04-03T05:24:27;17.75;;;6.03;;
23260;SDS011;11799;47.740;-3.390;2023-04-03T05:26:53;21.95;;;5.70;;
23260;SDS011;11799;47.740;-3.390;2023-04-03T05:29:20;19.52;;;6.07;;
23260;SDS011;11799;47.740;-3.390;2023-04-03T05:31:48;18.48;;;5.85;;
23260;SDS011;11799;47.740;-3.390;2023-04-03T05:34:15;20.83;;;5.93;;
23260;SDS011;11799;47.740;-3.390;2023-04-03T05:36:42;15.90;;;6.10;;
23260;SDS011;11799;47.740;-3.390;2023-04-03T05:39:08;16.83;;;5.80;;
23260;SDS011;11799;47.740;-3.390;2023-04-03T05:41:37;21.33;;;5.93;;
23260;SDS011;11799;47.740;-3.390;2023-04-03T05:44:02;24.50;;;6.32;;
23260;SDS011;11799;47.740;-3.390;2023-04-03T05:46:28;18.83;;;6.20;;
23260;SDS011;11799;47.740;-3.390;2023-04-03T05:48:56;21.45;;;5.65;;
23260;SDS011;11799;47.740;-3.390;2023-04-03T05:51:27;13.68;;;5.65;;
23260;SDS011;11799;47.740;-3.390;2023-04-03T05:54:20;19.00;;;6.47;;
23260;SDS011;11799;47.740;-3.390;2023-04-03T05:56:49;16.58;;;5.55;;
23260;SDS011;11799;47.740;-3.390;2023-04-03T05:59:16;18.70;;;5.60;;
23260;SDS011;11799;47.740;-3.390;2023-04-03T06:01:42;19.38;;;5.63;;
23260;SDS011;11799;47.740;-3.390;2023-04-03T06:04:08;20.33;;;5.80;;
23260;SDS011;11799;47.740;-3.390;2023-04-03T06:09:10;14.02;;;5.93;;
23260;SDS011;11799;47.740;-3.390;2023-04-03T06:11:36;18.38;;;5.63;;
23260;SDS011;11799;47.740;-3.390;2023-04-03T06:14:02;20.05;;;6.20;;
23260;SDS011;11799;47.740;-3.390;2023-04-03T06:16:28;26.00;;;5.90;;
23260;SDS011;11799;47.740;-3.390;2023-04-03T06:18:54;23.88;;;5.80;;
23260;SDS011;11799;47.740;-3.390;2023-04-03T06:21:20;19.23;;;6.30;;
23260;SDS011;11799;47.740;-3.390;2023-04-03T06:23:46;19.50;;;5.82;;
23260;SDS011;11799;47.740;-3.390;2023-04-03T06:26:11;20.23;;;6.35;;
23260;SDS011;11799;47.740;-3.390;2023-04-03T06:28:37;16.50;;;5.88;;
23260;SDS011;11799;47.740;-3.390;2023-04-03T06:31:02;22.33;;;6.82;;
23260;SDS011;11799;47.740;-3.390;2023-04-03T06:33:28;14.70;;;5.50;;
23260;SDS011;11799;47.740;-3.390;2023-04-03T06:35:57;21.05;;;6.60;;
23260;SDS011;11799;47.740;-3.390;2023-04-03T06:38:23;21.83;;;5.75;;
23260;SDS011;11799;47.740;-3.390;2023-04-03T06:40:49;20.95;;;6.30;;
23260;SDS011;11799;47.740;-3.390;2023-04-03T06:43:15;20.98;;;7.25;;
23260;SDS011;11799;47.740;-3.390;2023-04-03T06:45:40;19.85;;;5.90;;
23260;SDS011;11799;47.740;-3.390;2023-04-03T06:48:06;21.65;;;5.95;;
23260;SDS011;11799;47.740;-3.390;2023-04-03T06:50:31;23.63;;;5.43;;
23260;SDS011;11799;47.740;-3.390;2023-04-03T06:52:57;27.85;;;5.93;;
23260;SDS011;11799;47.740;-3.390;2023-04-03T06:55:23;22.40;;;5.75;;
23260;SDS011;11799;47.740;-3.390;2023-04-03T06:57:48;23.05;;;6.47;;
23260;SDS011;11799;47.740;-3.390;2023-04-03T07:00:14;17.60;;;6.07;;
23260;SDS011;11799;47.740;-3.390;2023-04-03T07:02:41;23.90;;;6.10;;
23260;SDS011;11799;47.740;-3.390;2023-04-03T07:05:07;24.20;;;6.25;;
23260;SDS011;11799;47.740;-3.390;2023-04-03T07:07:34;21.48;;;6.78;;
23260;SDS011;11799;47.740;-3.390;2023-04-03T07:09:59;25.48;;;6.85;;
23260;SDS011;11799;47.740;-3.390;2023-04-03T07:12:25;20.58;;;6.38;;
23260;SDS011;11799;47.740;-3.390;2023-04-03T07:14:51;24.15;;;6.90;;
23260;SDS011;11799;47.740;-3.390;2023-04-03T07:17:16;17.65;;;6.47;;
23260;SDS011;11799;47.740;-3.390;2023-04-03T07:19:42;21.65;;;7.07;;
23260;SDS011;11799;47.740;-3.390;2023-04-03T07:22:07;23.88;;;6.05;;
23260;SDS011;11799;47.740;-3.390;2023-04-03T07:24:33;19.60;;;6.57;;
23260;SDS011;11799;47.740;-3.390;2023-04-03T07:27:00;17.52;;;5.97;;
23260;SDS011;11799;47.740;-3.390;2023-04-03T07:29:26;23.05;;;6.25;;
23260;SDS011;11799;47.740;-3.390;2023-04-03T07:31:51;15.90;;;6.40;;
23260;SDS011;11799;47.740;-3.390;2023-04-03T07:34:17;27.60;;;6.97;;
23260;SDS011;11799;47.740;-3.390;2023-04-03T07:36:43;30.77;;;8.07;;
23260;SDS011;11799;47.740;-3.390;2023-04-03T07:39:08;28.92;;;8.40;;
23260;SDS011;11799;47.740;-3.390;2023-04-03T07:41:34;32.88;;;7.90;;
23260;SDS011;11799;47.740;-3.390;2023-04-03T07:44:00;26.95;;;7.93;;
23260;SDS011;11799;47.740;-3.390;2023-04-03T07:46:25;24.73;;;8.23;;
23260;SDS011;11799;47.740;-3.390;2023-04-03T07:48:51;32.70;;;8.13;;
23260;SDS011;11799;47.740;-3.390;2023-04-03T07:51:16;29.83;;;7.10;;
23260;SDS011;11799;47.740;-3.390;2023-04-03T07:53:42;29.15;;;7.55;;
23260;SDS011;11799;47.740;-3.390;2023-04-03T07:56:08;29.52;;;7.88;;
23260;SDS011;11799;47.740;-3.390;2023-04-03T07:58:34;26.23;;;7.82;;
23260;SDS011;11799;47.740;-3.390;2023-04-03T08:01:00;25.10;;;7.75;;
23260;SDS011;11799;47.740;-3.390;2023-04-03T08:03:25;26.95;;;6.85;;
23260;SDS011;11799;47.740;-3.390;2023-04-03T08:05:51;23.48;;;6.88;;
23260;SDS011;11799;47.740;-3.390;2023-04-03T08:08:19;25.33;;;6.40;;
23260;SDS011;11799;47.740;-3.390;2023-04-03T08:10:49;28.70;;;5.88;;
23260;SDS011;11799;47.740;-3.390;2023-04-03T08:13:18;24.17;;;5.78;;
23260;SDS011;11799;47.740;-3.390;2023-04-03T08:15:44;15.55;;;6.10;;
23260;SDS011;11799;47.740;-3.390;2023-04-03T08:18:10;17.05;;;6.32;;
23260;SDS011;11799;47.740;-3.390;2023-04-03T08:20:37;22.40;;;6.30;;
23260;SDS011;11799;47.740;-3.390;2023-04-03T08:23:03;17.77;;;5.85;;
23260;SDS011;11799;47.740;-3.390;2023-04-03T08:25:29;20.83;;;5.93;;
23260;SDS011;11799;47.740;-3.390;2023-04-03T08:27:55;17.52;;;5.22;;
23260;SDS011;11799;47.740;-3.390;2023-04-03T08:30:21;18.00;;;5.15;;
23260;SDS011;11799;47.740;-3.390;2023-04-03T08:32:46;21.08;;;5.00;;
23260;SDS011;11799;47.740;-3.390;2023-04-03T08:35:12;21.48;;;5.07;;
23260;SDS011;11799;47.740;-3.390;2023-04-03T08:37:38;18.80;;;5.38;;
23260;SDS011;11799;47.740;-3.390;2023-04-03T08:40:05;14.07;;;5.13;;
23260;SDS011;11799;47.740;-3.390;2023-04-03T08:42:36;18.50;;;5.38;;
23260;SDS011;11799;47.740;-3.390;2023-04-03T08:47:59;11.95;;;5.40;;
23260;SDS011;11799;47.740;-3.390;2023-04-03T08:50:31;15.95;;;5.18;;
23260;SDS011;11799;47.740;-3.390;2023-04-03T08:53:03;18.95;;;5.28;;
23260;SDS011;11799;47.740;-3.390;2023-04-03T08:55:33;18.98;;;5.00;;
23260;SDS011;11799;47.740;-3.390;2023-04-03T08:58:04;9.07;;;4.93;;
23260;SDS011;11799;47.740;-3.390;2023-04-03T09:00:34;20.67;;;5.20;;
23260;SDS011;11799;47.740;-3.390;2023-04-03T09:03:13;15.23;;;4.95;;
23260;SDS011;11799;47.740;-3.390;2023-04-03T09:13:59;11.50;;;4.80;;
23260;SDS011;11799;47.740;-3.390;2023-04-03T09:19:21;15.30;;;4.80;;
23260;SDS011;11799;47.740;-3.390;2023-04-03T09:21:48;13.45;;;5.20;;
23260;SDS011;11799;47.740;-3.390;2023-04-03T09:24:15;18.65;;;5.05;;
23260;SDS011;11799;47.740;-3.390;2023-04-03T09:26:46;12.85;;;5.20;;
23260;SDS011;11799;47.740;-3.390;2023-04-03T09:29:19;14.23;;;4.10;;
23260;SDS011;11799;47.740;-3.390;2023-04-03T09:31:48;8.52;;;4.70;;
23260;SDS011;11799;47.740;-3.390;2023-04-03T09:34:32;12.23;;;4.40;;
23260;SDS011;11799;47.740;-3.390;2023-04-03T09:37:02;10.95;;;4.13;;
23260;SDS011;11799;47.740;-3.390;2023-04-03T09:39:52;12.02;;;4.65;;
23260;SDS011;11799;47.740;-3.390;2023-04-03T09:42:20;9.40;;;4.05;;
23260;SDS011;11799;47.740;-3.390;2023-04-03T09:45:25;13.98;;;4.63;;
23260;SDS011;11799;47.740;-3.390;2023-04-03T09:50:32;13.05;;;4.28;;
23260;SDS011;11799;47.740;-3.390;2023-04-03T09:53:01;9.65;;;4.25;;
23260;SDS011;11799;47.740;-3.390;2023-04-03T09:55:31;11.70;;;4.50;;
23260;SDS011;11799;47.740;-3.390;2023-04-03T09:58:00;13.75;;;5.85;;
23260;SDS011;11799;47.740;-3.390;2023-04-03T10:00:31;13.68;;;4.57;;
23260;SDS011;11799;47.740;-3.390;2023-04-03T10:03:00;9.07;;;4.18;;
23260;SDS011;11799;47.740;-3.390;2023-04-03T10:05:39;10.27;;;4.50;;
23260;SDS011;11799;47.740;-3.390;2023-04-03T10:10:36;13.32;;;4.88;;
23260;SDS011;11799;47.740;-3.390;2023-04-03T10:13:16;11.13;;;5.50;;
23260;SDS011;11799;47.740;-3.390;2023-04-03T10:15:45;18.20;;;5.22;;
23260;SDS011;11799;47.740;-3.390;2023-04-03T10:27:37;8.43;;;5.10;;
23260;SDS011;11799;47.740;-3.390;2023-04-03T10:35:56;11.07;;;5.05;;
23260;SDS011;11799;47.740;-3.390;2023-04-03T10:38:46;7.15;;;4.50;;
23260;SDS011;11799;47.740;-3.390;2023-04-03T10:41:34;14.35;;;6.07;;
23260;SDS011;11799;47.740;-3.390;2023-04-03T10:49:32;7.55;;;5.18;;
23260;SDS011;11799;47.740;-3.390;2023-04-03T10:52:29;11.40;;;5.20;;
23260;SDS011;11799;47.740;-3.390;2023-04-03T10:57:26;11.07;;;5.40;;
23260;SDS011;11799;47.740;-3.390;2023-04-03T10:59:56;11.40;;;6.22;;
23260;SDS011;11799;47.740;-3.390;2023-04-03T11:02:35;15.63;;;5.85;;
23260;SDS011;11799;47.740;-3.390;2023-04-03T11:05:18;11.18;;;5.53;;
23260;SDS011;11799;47.740;-3.390;2023-04-03T11:07:55;11.80;;;6.20;;
23260;SDS011;11799;47.740;-3.390;2023-04-03T11:10:47;16.80;;;6.43;;
23260;SDS011;11799;47.740;-3.390;2023-04-03T11:15:59;10.40;;;6.15;;
23260;SDS011;11799;47.740;-3.390;2023-04-03T11:18:27;10.23;;;5.28;;
23260;SDS011;11799;47.740;-3.390;2023-04-03T11:23:49;12.77;;;6.13;;
23260;SDS011;11799;47.740;-3.390;2023-04-03T11:26:21;10.70;;;5.75;;
23260;SDS011;11799;47.740;-3.390;2023-04-03T11:28:58;11.18;;;6.32;;
23260;SDS011;11799;47.740;-3.390;2023-04-03T11:37:29;11.48;;;5.80;;
23260;SDS011;11799;47.740;-3.390;2023-04-03T11:40:08;10.43;;;5.85;;
23260;SDS011;11799;47.740;-3.390;2023-04-03T11:42:48;10.38;;;5.82;;
23260;SDS011;11799;47.740;-3.390;2023-04-03T11:48:03;9.50;;;5.88;;
23260;SDS011;11799;47.740;-3.390;2023-04-03T12:13:38;8.15;;;5.55;;
23260;SDS011;11799;47.740;-3.390;2023-04-03T12:16:06;10.88;;;5.20;;
23260;SDS011;11799;47.740;-3.390;2023-04-03T12:21:14;14.13;;;7.18;;
23260;SDS011;11799;47.740;-3.390;2023-04-03T12:29:01;18.63;;;12.05;;
23260;SDS011;11799;47.740;-3.390;2023-04-03T12:31:42;18.38;;;13.80;;
23260;SDS011;11799;47.740;-3.390;2023-04-03T12:37:35;12.25;;;8.90;;
23260;SDS011;11799;47.740;-3.390;2023-04-03T12:45:27;7.03;;;5.32;;
23260;SDS011;11799;47.740;-3.390;2023-04-03T12:47:53;7.30;;;4.50;;
23260;SDS011;11799;47.740;-3.390;2023-04-03T12:50:24;10.20;;;5.05;;
23260;SDS011;11799;47.740;-3.390;2023-04-03T12:53:11;7.05;;;4.10;;
23260;SDS011;11799;47.740;-3.390;2023-04-03T12:55:40;5.40;;;3.67;;
23260;SDS011;11799;47.740;-3.390;2023-04-03T13:00:46;9.00;;;4.45;;
23260;SDS011;11799;47.740;-3.390;2023-04-03T13:03:24;5.75;;;3.38;;
23260;SDS011;11799;47.740;-3.390;2023-04-03T13:05:52;6.53;;;3.85;;
23260;SDS011;11799;47.740;-3.390;2023-04-03T13:08:28;7.75;;;3.70;;
23260;SDS011;11799;47.740;-3.390;2023-04-03T13:11:02;7.15;;;3.92;;
23260;SDS011;11799;47.740;-3.390;2023-04-03T13:13:33;7.00;;;3.83;;
23260;SDS011;11799;47.740;-3.390;2023-04-03T13:15:59;6.60;;;4.32;;
23260;SDS011;11799;47.740;-3.390;2023-04-03T13:18:32;10.10;;;4.82;;
23260;SDS011;11799;47.740;-3.390;2023-04-03T13:23:27;7.20;;;4.80;;
23260;SDS011;11799;47.740;-3.390;2023-04-03T13:25:55;7.10;;;5.18;;
23260;SDS011;11799;47.740;-3.390;2023-04-03T13:28:26;5.80;;;4.70;;
23260;SDS011;11799;47.740;-3.390;2023-04-03T13:30:56;8.85;;;5.05;;
23260;SDS011;11799;47.740;-3.390;2023-04-03T13:33:28;7.32;;;4.68;;
23260;SDS011;11799;47.740;-3.390;2023-04-03T13:36:06;6.82;;;4.60;;
23260;SDS011;11799;47.740;-3.390;2023-04-03T13:41:47;7.38;;;4.50;;
23260;SDS011;11799;47.740;-3.390;2023-04-03T13:46:43;7.20;;;5.03;;
23260;SDS011;11799;47.740;-3.390;2023-04-03T13:49:22;9.18;;;4.95;;
23260;SDS011;11799;47.740;-3.390;2023-04-03T13:51:53;11.02;;;4.88;;
23260;SDS011;11799;47.740;-3.390;2023-04-03T13:54:23;8.43;;;5.18;;
23260;SDS011;11799;47.740;-3.390;2023-04-03T13:56:54;8.63;;;4.95;;
23260;SDS011;11799;47.740;-3.390;2023-04-03T14:04:28;8.10;;;4.78;;
23260;SDS011;11799;47.740;-3.390;2023-04-03T14:06:55;6.45;;;4.65;;
23260;SDS011;11799;47.740;-3.390;2023-04-03T14:09:22;8.32;;;5.22;;
23260;SDS011;11799;47.740;-3.390;2023-04-03T14:11:52;6.32;;;4.85;;
23260;SDS011;11799;47.740;-3.390;2023-04-03T14:14:22;9.00;;;5.50;;
23260;SDS011;11799;47.740;-3.390;2023-04-03T14:16:52;6.57;;;5.37;;
23260;SDS011;11799;47.740;-3.390;2023-04-03T14:19:22;7.78;;;4.57;;
23260;SDS011;11799;47.740;-3.390;2023-04-03T14:21:50;8.90;;;5.40;;
23260;SDS011;11799;47.740;-3.390;2023-04-03T14:24:18;11.20;;;4.95;;
23260;SDS011;11799;47.740;-3.390;2023-04-03T14:26:44;7.97;;;4.75;;
23260;SDS011;11799;47.740;-3.390;2023-04-03T14:29:11;5.85;;;4.60;;
23260;SDS011;11799;47.740;-3.390;2023-04-03T14:31:37;9.32;;;5.75;;
23260;SDS011;11799;47.740;-3.390;2023-04-03T14:34:03;7.18;;;4.70;;
23260;SDS011;11799;47.740;-3.390;2023-04-03T14:36:29;9.90;;;5.53;;
23260;SDS011;11799;47.740;-3.390;2023-04-03T14:38:55;9.05;;;5.40;;
23260;SDS011;11799;47.740;-3.390;2023-04-03T14:41:23;8.27;;;5.15;;
23260;SDS011;11799;47.740;-3.390;2023-04-03T14:43:51;6.97;;;4.70;;
23260;SDS011;11799;47.740;-3.390;2023-04-03T14:46:18;8.02;;;5.32;;
23260;SDS011;11799;47.740;-3.390;2023-04-03T14:48:48;6.15;;;4.82;;
23260;SDS011;11799;47.740;-3.390;2023-04-03T14:51:14;8.20;;;5.22;;
23260;SDS011;11799;47.740;-3.390;2023-04-03T14:53:41;8.23;;;5.10;;
23260;SDS011;11799;47.740;-3.390;2023-04-03T14:56:19;8.10;;;5.03;;
23260;SDS011;11799;47.740;-3.390;2023-04-03T14:58:48;8.90;;;5.25;;
23260;SDS011;11799;47.740;-3.390;2023-04-03T15:01:18;7.38;;;5.47;;
23260;SDS011;11799;47.740;-3.390;2023-04-03T15:03:44;7.05;;;4.85;;
23260;SDS011;11799;47.740;-3.390;2023-04-03T15:06:12;8.20;;;5.47;;
23260;SDS011;11799;47.740;-3.390;2023-04-03T15:08:40;8.73;;;5.80;;
23260;SDS011;11799;47.740;-3.390;2023-04-03T15:11:07;7.60;;;5.80;;
23260;SDS011;11799;47.740;-3.390;2023-04-03T15:13:37;7.22;;;4.88;;
23260;SDS011;11799;47.740;-3.390;2023-04-03T15:16:03;8.18;;;5.78;;
23260;SDS011;11799;47.740;-3.390;2023-04-03T15:18:32;6.47;;;5.07;;
23260;SDS011;11799;47.740;-3.390;2023-04-03T15:21:02;10.88;;;5.57;;
23260;SDS011;11799;47.740;-3.390;2023-04-03T15:23:28;7.30;;;5.10;;
23260;SDS011;11799;47.740;-3.390;2023-04-03T15:25:55;8.20;;;5.85;;
23260;SDS011;11799;47.740;-3.390;2023-04-03T15:28:32;8.23;;;5.25;;
23260;SDS011;11799;47.740;-3.390;2023-04-03T15:31:02;6.63;;;4.93;;
23260;SDS011;11799;47.740;-3.390;2023-04-03T15:33:29;6.70;;;4.97;;
23260;SDS011;11799;47.740;-3.390;2023-04-03T15:35:55;6.55;;;4.80;;
23260;SDS011;11799;47.740;-3.390;2023-04-03T15:38:21;6.00;;;4.88;;
23260;SDS011;11799;47.740;-3.390;2023-04-03T15:40:47;7.00;;;4.82;;
23260;SDS011;11799;47.740;-3.390;2023-04-03T15:43:13;5.88;;;4.75;;
23260;SDS011;11799;47.740;-3.390;2023-04-03T15:45:39;10.07;;;5.82;;
23260;SDS011;11799;47.740;-3.390;2023-04-03T15:48:05;8.80;;;5.28;;
23260;SDS011;11799;47.740;-3.390;2023-04-03T15:50:32;8.98;;;5.80;;
23260;SDS011;11799;47.740;-3.390;2023-04-03T15:52:58;8.15;;;6.22;;
23260;SDS011;11799;47.740;-3.390;2023-04-03T15:55:25;8.70;;;6.70;;
23260;SDS011;11799;47.740;-3.390;2023-04-03T15:57:52;10.07;;;7.68;;
23260;SDS011;11799;47.740;-3.390;2023-04-03T16:00:19;8.68;;;7.03;;
23260;SDS011;11799;47.740;-3.390;2023-04-03T16:02:46;13.63;;;7.40;;
23260;SDS011;11799;47.740;-3.390;2023-04-03T16:05:15;8.85;;;7.40;;
23260;SDS011;11799;47.740;-3.390;2023-04-03T16:07:42;9.73;;;6.63;;
23260;SDS011;11799;47.740;-3.390;2023-04-03T16:10:09;8.57;;;7.60;;
23260;SDS011;11799;47.740;-3.390;2023-04-03T16:12:37;7.43;;;6.05;;
23260;SDS011;11799;47.740;-3.390;2023-04-03T16:15:04;13.60;;;7.47;;
23260;SDS011;11799;47.740;-3.390;2023-04-03T16:17:30;7.93;;;6.03;;
23260;SDS011;11799;47.740;-3.390;2023-04-03T16:19:58;9.50;;;7.80;;
23260;SDS011;11799;47.740;-3.390;2023-04-03T16:22:24;9.77;;;7.60;;
23260;SDS011;11799;47.740;-3.390;2023-04-03T16:24:52;8.25;;;6.68;;
23260;SDS011;11799;47.740;-3.390;2023-04-03T16:27:18;10.93;;;7.03;;
23260;SDS011;11799;47.740;-3.390;2023-04-03T16:29:45;8.55;;;6.45;;
23260;SDS011;11799;47.740;-3.390;2023-04-03T16:32:11;8.75;;;6.10;;
23260;SDS011;11799;47.740;-3.390;2023-04-03T16:34:37;13.07;;;7.38;;